sensor_id;sensor_type;location;lat;lon;timestamp;pressure;altitude;pressure_sealevel;temperature;humidity
5062;BME280;2351;50.812;12.872;2023-02-13T00:01:03;99992.25;;;3.79;100.00
5062;BME280;2351;50.812;12.872;2023-02-13T00:03:35;99982.69;;;3.76;100.00
5062;BME280;2351;50.812;12.872;2023-02-13T00:06:07;99989.84;;;3.71;100.00
5062;BME280;2351;50.812;12.872;2023-02-13T00:08:40;99992.47;;;3.70;100.00
5062;BME280;2351;50.812;12.872;2023-02-13T00:11:12;99988.06;;;3.72;100.00
5062;BME280;2351;50.812;12.872;2023-02-13T00:13:44;99988.06;;;3.72;100.00
5062;BME280;2351;50.812;12.872;2023-02-13T00:16:16;99988.03;;;3.73;100.00
5062;BME280;2351;50.812;12.872;2023-02-13T00:18:47;99995.03;;;3.73;100.00
5062;BME280;2351;50.812;12.872;2023-02-13T00:21:19;99992.41;;;3.73;100.00
5062;BME280;2351;50.812;12.872;2023-02-13T00:23:52;99990.66;;;3.73;100.00
5062;BME280;2351;50.812;12.872;2023-02-13T00:26:24;99988.03;;;3.73;100.00
5062;BME280;2351;50.812;12.872;2023-02-13T00:28:56;99986.28;;;3.74;100.00
5062;BME280;2351;50.812;12.872;2023-02-13T00:31:27;99985.44;;;3.73;100.00
5062;BME280;2351;50.812;12.872;2023-02-13T00:33:59;99981.03;;;3.74;100.00
5062;BME280;2351;50.812;12.872;2023-02-13T00:36:31;99981.94;;;3.73;100.00
5062;BME280;2351;50.812;12.872;2023-02-13T00:39:04;99980.13;;;3.75;100.00
5062;BME280;2351;50.812;12.872;2023-02-13T00:41:36;99982.75;;;3.75;100.00
5062;BME280;2351;50.812;12.872;2023-02-13T00:44:08;99980.13;;;3.75;100.00
5062;BME280;2351;50.812;12.872;2023-02-13T00:46:39;99980.97;;;3.75;100.00
5062;BME280;2351;50.812;12.872;2023-02-13T00:49:11;99975.78;;;3.74;100.00
5062;BME280;2351;50.812;12.872;2023-02-13T00:51:43;99976.69;;;3.73;100.00
5062;BME280;2351;50.812;12.872;2023-02-13T00:54:16;99976.75;;;3.71;100.00
5062;BME280;2351;50.812;12.872;2023-02-13T00:56:48;99978.53;;;3.69;100.00
5062;BME280;2351;50.812;12.872;2023-02-13T00:59:20;99966.38;;;3.67;100.00
5062;BME280;2351;50.812;12.872;2023-02-13T01:01:52;99982.19;;;3.64;100.00
5062;BME280;2351;50.812;12.872;2023-02-13T01:04:23;99984.75;;;3.65;100.00
5062;BME280;2351;50.812;12.872;2023-02-13T01:06:55;99984.75;;;3.65;100.00
5062;BME280;2351;50.812;12.872;2023-02-13T01:09:28;99987.41;;;3.64;100.00
5062;BME280;2351;50.812;12.872;2023-02-13T01:12:00;99983.09;;;3.61;100.00
5062;BME280;2351;50.812;12.872;2023-02-13T01:14:31;99979.63;;;3.60;100.00
5062;BME280;2351;50.812;12.872;2023-02-13T01:17:03;99982.28;;;3.59;100.00
5062;BME280;2351;50.812;12.872;2023-02-13T01:19:35;99984.06;;;3.58;100.00
5062;BME280;2351;50.812;12.872;2023-02-13T01:22:07;99987.56;;;3.57;100.00
5062;BME280;2351;50.812;12.872;2023-02-13T01:24:40;99984.94;;;3.57;100.00
5062;BME280;2351;50.812;12.872;2023-02-13T01:27:12;99988.41;;;3.58;100.00
5062;BME280;2351;50.812;12.872;2023-02-13T01:29:43;99984.06;;;3.58;100.00
5062;BME280;2351;50.812;12.872;2023-02-13T01:32:15;99984.94;;;3.57;100.00
5062;BME280;2351;50.812;12.872;2023-02-13T01:34:47;99984.94;;;3.57;100.00
5062;BME280;2351;50.812;12.872;2023-02-13T01:37:18;99983.16;;;3.58;100.00
5062;BME280;2351;50.812;12.872;2023-02-13T01:39:51;99980.59;;;3.56;100.00
5062;BME280;2351;50.812;12.872;2023-02-13T01:42:25;99977.09;;;3.56;100.00
5062;BME280;2351;50.812;12.872;2023-02-13T01:44:58;99967.50;;;3.56;100.00
5062;BME280;2351;50.812;12.872;2023-02-13T01:47:34;99968.34;;;3.57;100.00
5062;BME280;2351;50.812;12.872;2023-02-13T01:50:13;99972.69;;;3.58;100.00
5062;BME280;2351;50.812;12.872;2023-02-13T01:52:50;99966.63;;;3.57;100.00
5062;BME280;2351;50.812;12.872;2023-02-13T01:55:25;99966.63;;;3.57;100.00
5062;BME280;2351;50.812;12.872;2023-02-13T01:58:00;99970.13;;;3.56;100.00
5062;BME280;2351;50.812;12.872;2023-02-13T02:00:33;99966.63;;;3.56;100.00
5062;BME280;2351;50.812;12.872;2023-02-13T02:03:09;99971.84;;;3.57;100.00
5062;BME280;2351;50.812;12.872;2023-02-13T02:05:43;99964.91;;;3.56;100.00
5062;BME280;2351;50.812;12.872;2023-02-13T02:08:15;99964.91;;;3.56;100.00
5062;BME280;2351;50.812;12.872;2023-02-13T02:10:49;99959.66;;;3.56;100.00
5062;BME280;2351;50.812;12.872;2023-02-13T02:13:21;99953.59;;;3.54;100.00
5062;BME280;2351;50.812;12.872;2023-02-13T02:15:52;99956.22;;;3.54;100.00
5062;BME280;2351;50.812;12.872;2023-02-13T02:18:24;99950.16;;;3.52;100.00
5062;BME280;2351;50.812;12.872;2023-02-13T02:30:24;99947.59;;;3.49;100.00
5062;BME280;2351;50.812;12.872;2023-02-13T02:33:07;99952.84;;;3.49;100.00
5062;BME280;2351;50.812;12.872;2023-02-13T02:35:48;99950.28;;;3.47;100.00
5062;BME280;2351;50.812;12.872;2023-02-13T02:38:40;99952.00;;;3.47;100.00
5062;BME280;2351;50.812;12.872;2023-02-13T02:41:27;99947.66;;;3.47;100.00
5062;BME280;2351;50.812;12.872;2023-02-13T02:44:23;99948.63;;;3.43;100.00
5062;BME280;2351;50.812;12.872;2023-02-13T02:47:08;99942.50;;;3.43;100.00
5062;BME280;2351;50.812;12.872;2023-02-13T02:50:11;99939.06;;;3.42;100.00
5062;BME280;2351;50.812;12.872;2023-02-13T02:52:56;99943.44;;;3.42;100.00
5062;BME280;2351;50.812;12.872;2023-02-13T02:55:35;99943.47;;;3.40;100.00
5062;BME280;2351;50.812;12.872;2023-02-13T02:58:13;99939.94;;;3.41;100.00
5062;BME280;2351;50.812;12.872;2023-02-13T03:01:09;99946.06;;;3.42;100.00
5062;BME280;2351;50.812;12.872;2023-02-13T03:04:02;99938.22;;;3.40;100.00
5062;BME280;2351;50.812;12.872;2023-02-13T03:06:55;99936.50;;;3.39;100.00
5062;BME280;2351;50.812;12.872;2023-02-13T03:09:31;99933.03;;;3.39;100.00
5062;BME280;2351;50.812;12.872;2023-02-13T03:12:26;99929.53;;;3.38;100.00
5062;BME280;2351;50.812;12.872;2023-02-13T03:15:17;99933.06;;;3.37;100.00
5062;BME280;2351;50.812;12.872;2023-02-13T03:17:48;99934.84;;;3.37;100.00
5062;BME280;2351;50.812;12.872;2023-02-13T03:20:44;99928.72;;;3.36;100.00
5062;BME280;2351;50.812;12.872;2023-02-13T03:23:44;99931.34;;;3.36;100.00
5062;BME280;2351;50.812;12.872;2023-02-13T03:26:31;99927.88;;;3.36;100.00
5062;BME280;2351;50.812;12.872;2023-02-13T03:29:28;99929.66;;;3.34;100.00
5062;BME280;2351;50.812;12.872;2023-02-13T03:32:40;99929.66;;;3.34;100.00
5062;BME280;2351;50.812;12.872;2023-02-13T03:35:26;99933.19;;;3.33;100.00
5062;BME280;2351;50.812;12.872;2023-02-13T03:38:22;99936.84;;;3.25;100.00
5062;BME280;2351;50.812;12.872;2023-02-13T03:41:01;99944.75;;;3.22;100.00
5062;BME280;2351;50.812;12.872;2023-02-13T03:44:03;99953.50;;;3.21;100.00
5062;BME280;2351;50.812;12.872;2023-02-13T03:46:41;99952.72;;;3.19;100.00
5062;BME280;2351;50.812;12.872;2023-02-13T03:49:20;99948.31;;;3.20;100.00
5062;BME280;2351;50.812;12.872;2023-02-13T03:52:14;99951.78;;;3.20;100.00
5062;BME280;2351;50.812;12.872;2023-02-13T03:54:51;99955.28;;;3.21;100.00
5062;BME280;2351;50.812;12.872;2023-02-13T03:57:43;99956.19;;;3.20;100.00
5062;BME280;2351;50.812;12.872;2023-02-13T04:00:38;99960.56;;;3.19;100.00
5062;BME280;2351;50.812;12.872;2023-02-13T04:03:14;99957.94;;;3.19;100.00
5062;BME280;2351;50.812;12.872;2023-02-13T04:05:50;99959.69;;;3.19;100.00
5062;BME280;2351;50.812;12.872;2023-02-13T04:08:23;99959.63;;;3.20;100.00
5062;BME280;2351;50.812;12.872;2023-02-13T04:11:01;99963.97;;;3.21;100.00
5062;BME280;2351;50.812;12.872;2023-02-13T04:13:41;99963.13;;;3.21;100.00
5062;BME280;2351;50.812;12.872;2023-02-13T04:16:16;99961.34;;;3.21;100.00
5062;BME280;2351;50.812;12.872;2023-02-13T04:18:51;99967.50;;;3.20;100.00
5062;BME280;2351;50.812;12.872;2023-02-13T04:21:23;99968.38;;;3.21;100.00
5062;BME280;2351;50.812;12.872;2023-02-13T04:23:55;99964.03;;;3.20;100.00
5062;BME280;2351;50.812;12.872;2023-02-13T04:26:32;99963.19;;;3.19;100.00
5062;BME280;2351;50.812;12.872;2023-02-13T04:29:06;99963.19;;;3.19;100.00
5062;BME280;2351;50.812;12.872;2023-02-13T04:31:38;99964.06;;;3.18;100.00
5062;BME280;2351;50.812;12.872;2023-02-13T04:34:10;99963.19;;;3.19;100.00
5062;BME280;2351;50.812;12.872;2023-02-13T04:36:42;99964.06;;;3.18;100.00
5062;BME280;2351;50.812;12.872;2023-02-13T04:39:14;99970.19;;;3.17;100.00
5062;BME280;2351;50.812;12.872;2023-02-13T04:41:46;99960.66;;;3.14;100.00
5062;BME280;2351;50.812;12.872;2023-02-13T04:44:19;99962.41;;;3.14;100.00
5062;BME280;2351;50.812;12.872;2023-02-13T04:46:51;99961.59;;;3.12;100.00
5062;BME280;2351;50.812;12.872;2023-02-13T04:49:22;99958.97;;;3.12;100.00
5062;BME280;2351;50.812;12.872;2023-02-13T04:51:54;99957.25;;;3.11;100.00
5062;BME280;2351;50.812;12.872;2023-02-13T04:54:26;99954.59;;;3.12;100.00
5062;BME280;2351;50.812;12.872;2023-02-13T04:56:57;99952.91;;;3.10;100.00
5062;BME280;2351;50.812;12.872;2023-02-13T04:59:30;99952.91;;;3.10;100.00
5062;BME280;2351;50.812;12.872;2023-02-13T05:02:02;99957.28;;;3.09;100.00
5062;BME280;2351;50.812;12.872;2023-02-13T05:04:34;99951.19;;;3.09;100.00
5062;BME280;2351;50.812;12.872;2023-02-13T05:07:06;99949.53;;;3.06;100.00
5062;BME280;2351;50.812;12.872;2023-02-13T05:09:37;99946.91;;;3.06;100.00
5062;BME280;2351;50.812;12.872;2023-02-13T05:12:09;99949.59;;;3.03;100.00
5062;BME280;2351;50.812;12.872;2023-02-13T05:14:42;99940.91;;;3.01;100.00
5062;BME280;2351;50.812;12.872;2023-02-13T05:17:14;99948.72;;;3.03;100.00
5062;BME280;2351;50.812;12.872;2023-02-13T05:19:45;99939.13;;;3.03;100.00
5062;BME280;2351;50.812;12.872;2023-02-13T05:22:17;99941.69;;;3.05;100.00
5062;BME280;2351;50.812;12.872;2023-02-13T05:25:06;99943.41;;;3.06;100.00
5062;BME280;2351;50.812;12.872;2023-02-13T05:27:38;99935.63;;;3.04;100.00
5062;BME280;2351;50.812;12.872;2023-02-13T05:30:12;99946.03;;;3.06;100.00
5062;BME280;2351;50.812;12.872;2023-02-13T05:32:44;99939.97;;;3.04;100.00
5062;BME280;2351;50.812;12.872;2023-02-13T05:35:16;99941.75;;;3.01;100.00
5062;BME280;2351;50.812;12.872;2023-02-13T05:37:48;99941.81;;;3.00;100.00
5062;BME280;2351;50.812;12.872;2023-02-13T05:40:20;99941.88;;;2.97;100.00
5062;BME280;2351;50.812;12.872;2023-02-13T05:42:53;99950.66;;;2.94;100.00
5062;BME280;2351;50.812;12.872;2023-02-13T05:45:26;99952.47;;;2.91;100.00
5062;BME280;2351;50.812;12.872;2023-02-13T05:47:57;99942.06;;;2.89;100.00
5062;BME280;2351;50.812;12.872;2023-02-13T05:50:29;99953.34;;;2.90;100.00
5062;BME280;2351;50.812;12.872;2023-02-13T05:53:01;99951.69;;;2.87;100.00
5062;BME280;2351;50.812;12.872;2023-02-13T05:55:32;99954.34;;;2.85;100.00
5062;BME280;2351;50.812;12.872;2023-02-13T05:58:04;99948.28;;;2.83;100.00
5062;BME280;2351;50.812;12.872;2023-02-13T06:00:39;99951.72;;;2.85;100.00
5062;BME280;2351;50.812;12.872;2023-02-13T06:03:10;99949.13;;;2.84;100.00
5062;BME280;2351;50.812;12.872;2023-02-13T06:05:42;99951.78;;;2.82;100.00
5062;BME280;2351;50.812;12.872;2023-02-13T06:08:14;99951.88;;;2.78;100.00
5062;BME280;2351;50.812;12.872;2023-02-13T06:10:46;99953.59;;;2.80;100.00
5062;BME280;2351;50.812;12.872;2023-02-13T06:13:18;99958.88;;;2.77;100.00
5062;BME280;2351;50.812;12.872;2023-02-13T06:15:51;99959.72;;;2.78;100.00
5062;BME280;2351;50.812;12.872;2023-02-13T06:18:23;99957.19;;;2.75;100.00
5062;BME280;2351;50.812;12.872;2023-02-13T06:20:54;99958.09;;;2.74;100.00
5062;BME280;2351;50.812;12.872;2023-02-13T06:23:26;99962.44;;;2.73;100.00
5062;BME280;2351;50.812;12.872;2023-02-13T06:26:01;99972.97;;;2.71;100.00
5062;BME280;2351;50.812;12.872;2023-02-13T06:28:33;99976.47;;;2.69;100.00
5062;BME280;2351;50.812;12.872;2023-02-13T06:31:06;99980.03;;;2.66;100.00
5062;BME280;2351;50.812;12.872;2023-02-13T06:33:38;99982.69;;;2.63;100.00
5062;BME280;2351;50.812;12.872;2023-02-13T06:36:10;99987.94;;;2.63;100.00
5062;BME280;2351;50.812;12.872;2023-02-13T06:38:41;99979.25;;;2.63;100.00
5062;BME280;2351;50.812;12.872;2023-02-13T06:41:13;99981.88;;;2.61;100.00
5062;BME280;2351;50.812;12.872;2023-02-13T06:43:45;99983.66;;;2.59;100.00
5062;BME280;2351;50.812;12.872;2023-02-13T06:46:18;99978.44;;;2.59;100.00
5062;BME280;2351;50.812;12.872;2023-02-13T06:48:49;99985.38;;;2.60;100.00
5062;BME280;2351;50.812;12.872;2023-02-13T06:51:21;99985.38;;;2.60;100.00
5062;BME280;2351;50.812;12.872;2023-02-13T06:53:53;99982.69;;;2.65;100.00
5062;BME280;2351;50.812;12.872;2023-02-13T06:56:25;99981.84;;;2.63;100.00
5062;BME280;2351;50.812;12.872;2023-02-13T06:58:56;99984.47;;;2.63;100.00
5062;BME280;2351;50.812;12.872;2023-02-13T07:01:29;99984.53;;;2.60;100.00
5062;BME280;2351;50.812;12.872;2023-02-13T07:04:02;99990.66;;;2.59;100.00
5062;BME280;2351;50.812;12.872;2023-02-13T07:06:33;99995.84;;;2.60;100.00
5062;BME280;2351;50.812;12.872;2023-02-13T07:09:05;99996.66;;;2.62;100.00
5062;BME280;2351;50.812;12.872;2023-02-13T07:11:37;99999.28;;;2.62;100.00
5062;BME280;2351;50.812;12.872;2023-02-13T07:14:08;100002.84;;;2.60;100.00
5062;BME280;2351;50.812;12.872;2023-02-13T07:16:41;100003.75;;;2.57;100.00
5062;BME280;2351;50.812;12.872;2023-02-13T07:19:13;99999.38;;;2.58;100.00
5062;BME280;2351;50.812;12.872;2023-02-13T07:21:45;100012.41;;;2.59;100.00
5062;BME280;2351;50.812;12.872;2023-02-13T07:24:16;100013.28;;;2.60;100.00
5062;BME280;2351;50.812;12.872;2023-02-13T07:26:48;100007.13;;;2.62;100.00
5062;BME280;2351;50.812;12.872;2023-02-13T07:29:20;100009.63;;;2.67;100.00
5062;BME280;2351;50.812;12.872;2023-02-13T07:31:53;100013.09;;;2.69;100.00
5062;BME280;2351;50.812;12.872;2023-02-13T07:34:25;100004.34;;;2.70;100.00
5062;BME280;2351;50.812;12.872;2023-02-13T07:36:56;100004.34;;;2.71;100.00
5062;BME280;2351;50.812;12.872;2023-02-13T07:39:28;100008.63;;;2.76;100.00
5062;BME280;2351;50.812;12.872;2023-02-13T07:42:01;100000.66;;;2.80;100.00
5062;BME280;2351;50.812;12.872;2023-02-13T07:44:32;100004.91;;;2.86;100.00
5062;BME280;2351;50.812;12.872;2023-02-13T07:47:05;99998.72;;;2.89;100.00
5062;BME280;2351;50.812;12.872;2023-02-13T07:49:37;100001.28;;;2.92;100.00
5062;BME280;2351;50.812;12.872;2023-02-13T07:52:09;100010.72;;;2.99;100.00
5062;BME280;2351;50.812;12.872;2023-02-13T07:54:40;100007.09;;;3.05;100.00
5062;BME280;2351;50.812;12.872;2023-02-13T07:57:16;100006.16;;;3.09;100.00
5062;BME280;2351;50.812;12.872;2023-02-13T07:59:48;100002.56;;;3.13;100.00
5062;BME280;2351;50.812;12.872;2023-02-13T08:02:22;99998.09;;;3.18;100.00
5062;BME280;2351;50.812;12.872;2023-02-13T08:04:53;99994.59;;;3.19;100.00
5062;BME280;2351;50.812;12.872;2023-02-13T08:07:25;99991.97;;;3.19;100.00
5062;BME280;2351;50.812;12.872;2023-02-13T08:09:57;99991.97;;;3.19;100.00
5062;BME280;2351;50.812;12.872;2023-02-13T08:12:46;100000.78;;;3.15;100.00
5062;BME280;2351;50.812;12.872;2023-02-13T08:15:18;100006.06;;;3.12;100.00
5062;BME280;2351;50.812;12.872;2023-02-13T08:17:51;99994.84;;;3.07;100.00
5062;BME280;2351;50.812;12.872;2023-02-13T08:20:23;99994.78;;;3.10;100.00
5062;BME280;2351;50.812;12.872;2023-02-13T08:23:01;100006.91;;;3.12;100.00
5062;BME280;2351;50.812;12.872;2023-02-13T08:25:33;100007.66;;;3.19;100.00
5062;BME280;2351;50.812;12.872;2023-02-13T08:28:05;100009.47;;;3.17;100.00
5062;BME280;2351;50.812;12.872;2023-02-13T08:30:37;100011.25;;;3.13;100.00
5062;BME280;2351;50.812;12.872;2023-02-13T08:33:10;100013.03;;;3.13;100.00
5062;BME280;2351;50.812;12.872;2023-02-13T08:35:41;100007.81;;;3.11;100.00
5062;BME280;2351;50.812;12.872;2023-02-13T08:38:13;100014.81;;;3.11;100.00
5062;BME280;2351;50.812;12.872;2023-02-13T08:40:45;100014.84;;;3.09;100.00
5062;BME280;2351;50.812;12.872;2023-02-13T08:43:16;100020.19;;;3.05;100.00
5062;BME280;2351;50.812;12.872;2023-02-13T08:45:48;100015.88;;;3.02;100.00
5062;BME280;2351;50.812;12.872;2023-02-13T08:48:21;100023.69;;;3.05;100.00
5062;BME280;2351;50.812;12.872;2023-02-13T08:50:53;100020.16;;;3.06;100.00
5062;BME280;2351;50.812;12.872;2023-02-13T08:53:24;100023.56;;;3.10;100.00
5062;BME280;2351;50.812;12.872;2023-02-13T08:55:56;100019.94;;;3.17;100.00
5062;BME280;2351;50.812;12.872;2023-02-13T08:58:28;100014.53;;;3.23;100.00
5062;BME280;2351;50.812;12.872;2023-02-13T09:01:03;100020.41;;;3.35;100.00
5062;BME280;2351;50.812;12.872;2023-02-13T09:03:36;100020.16;;;3.44;100.00
5062;BME280;2351;50.812;12.872;2023-02-13T09:06:08;100014.91;;;3.45;100.00
5062;BME280;2351;50.812;12.872;2023-02-13T09:08:40;100018.38;;;3.46;100.00
5062;BME280;2351;50.812;12.872;2023-02-13T09:11:12;100021.88;;;3.46;100.00
5062;BME280;2351;50.812;12.872;2023-02-13T09:13:43;100024.38;;;3.51;100.00
5062;BME280;2351;50.812;12.872;2023-02-13T09:16:15;100024.16;;;3.59;100.00
5062;BME280;2351;50.812;12.872;2023-02-13T09:18:49;100025.06;;;3.58;100.00
5062;BME280;2351;50.812;12.872;2023-02-13T09:21:21;100024.28;;;3.54;100.00
5062;BME280;2351;50.812;12.872;2023-02-13T09:23:53;100033.34;;;3.41;100.00
5062;BME280;2351;50.812;12.872;2023-02-13T09:26:25;100030.22;;;3.23;100.00
5062;BME280;2351;50.812;12.872;2023-02-13T09:28:57;100032.91;;;3.20;100.00
5062;BME280;2351;50.812;12.872;2023-02-13T09:31:29;100030.16;;;3.26;100.00
5062;BME280;2351;50.812;12.872;2023-02-13T09:34:02;100036.88;;;3.38;100.00
5062;BME280;2351;50.812;12.872;2023-02-13T09:36:34;100040.31;;;3.42;100.00
5062;BME280;2351;50.812;12.872;2023-02-13T09:39:06;100038.59;;;3.41;100.00
5062;BME280;2351;50.812;12.872;2023-02-13T09:41:39;100038.34;;;3.50;100.00
5062;BME280;2351;50.812;12.872;2023-02-13T09:44:15;100039.06;;;3.57;100.00
5062;BME280;2351;50.812;12.872;2023-02-13T09:47:06;100043.22;;;3.66;100.00
5062;BME280;2351;50.812;12.872;2023-02-13T09:49:48;100037.97;;;3.66;100.00
5062;BME280;2351;50.812;12.872;2023-02-13T09:52:27;100042.22;;;3.71;100.00
5062;BME280;2351;50.812;12.872;2023-02-13T09:55:02;100040.25;;;3.80;100.00
5062;BME280;2351;50.812;12.872;2023-02-13T09:57:35;100036.53;;;3.88;100.00
5062;BME280;2351;50.812;12.872;2023-02-13T10:00:15;100032.84;;;3.97;100.00
5062;BME280;2351;50.812;12.872;2023-02-13T10:03:12;100027.56;;;3.99;100.00
5062;BME280;2351;50.812;12.872;2023-02-13T10:06:01;100035.28;;;4.05;100.00
5062;BME280;2351;50.812;12.872;2023-02-13T10:08:47;100030.72;;;4.12;100.00
5062;BME280;2351;50.812;12.872;2023-02-13T10:11:33;100040.09;;;4.20;100.00
5062;BME280;2351;50.812;12.872;2023-02-13T10:14:13;100044.19;;;4.31;100.00
5062;BME280;2351;50.812;12.872;2023-02-13T10:16:49;100047.31;;;4.45;100.00
5062;BME280;2351;50.812;12.872;2023-02-13T10:19:30;100036.53;;;4.56;100.00
5062;BME280;2351;50.812;12.872;2023-02-13T10:22:12;100042.41;;;4.64;100.00
5062;BME280;2351;50.812;12.872;2023-02-13T10:24:48;100041.47;;;4.67;100.00
5062;BME280;2351;50.812;12.872;2023-02-13T10:27:24;100037.72;;;4.76;100.00
5062;BME280;2351;50.812;12.872;2023-02-13T10:30:01;100035.75;;;4.84;100.00
5062;BME280;2351;50.812;12.872;2023-02-13T10:32:47;100038.31;;;4.86;100.00
5062;BME280;2351;50.812;12.872;2023-02-13T10:35:23;100026.78;;;4.91;100.00
5062;BME280;2351;50.812;12.872;2023-02-13T10:37:59;100028.16;;;5.03;100.00
5062;BME280;2351;50.812;12.872;2023-02-13T10:40:39;100025.28;;;5.12;100.00
5062;BME280;2351;50.812;12.872;2023-02-13T10:43:18;100027.00;;;5.13;100.00
5062;BME280;2351;50.812;12.872;2023-02-13T10:45:56;100028.75;;;5.13;100.00
5062;BME280;2351;50.812;12.872;2023-02-13T10:48:44;100030.66;;;5.08;100.00
5062;BME280;2351;50.812;12.872;2023-02-13T10:51:24;100035.19;;;5.03;100.00
5062;BME280;2351;50.812;12.872;2023-02-13T10:54:21;100022.16;;;5.00;100.00
5062;BME280;2351;50.812;12.872;2023-02-13T10:57:00;100016.69;;;5.07;100.00
5062;BME280;2351;50.812;12.872;2023-02-13T10:59:54;100006.69;;;5.19;100.00
5062;BME280;2351;50.812;12.872;2023-02-13T11:02:30;100007.97;;;5.34;100.00
5062;BME280;2351;50.812;12.872;2023-02-13T11:05:13;100002.19;;;5.51;100.00
5062;BME280;2351;50.812;12.872;2023-02-13T11:07:46;100001.19;;;5.55;100.00
5062;BME280;2351;50.812;12.872;2023-02-13T11:10:21;99987.97;;;5.58;100.00
5062;BME280;2351;50.812;12.872;2023-02-13T11:12:54;99994.63;;;5.68;100.00
5062;BME280;2351;50.812;12.872;2023-02-13T11:15:27;99991.81;;;6.01;100.00
5062;BME280;2351;50.812;12.872;2023-02-13T11:18:08;99991.25;;;6.17;100.00
5062;BME280;2351;50.812;12.872;2023-02-13T11:20:44;99985.56;;;6.53;100.00
5062;BME280;2351;50.812;12.872;2023-02-13T11:23:32;99977.50;;;6.82;100.00
5062;BME280;2351;50.812;12.872;2023-02-13T11:26:08;99970.13;;;7.14;100.00
5062;BME280;2351;50.812;12.872;2023-02-13T11:28:47;99972.22;;;7.50;100.00
5062;BME280;2351;50.812;12.872;2023-02-13T11:31:23;99967.81;;;7.92;100.00
5062;BME280;2351;50.812;12.872;2023-02-13T11:33:56;99961.09;;;8.26;100.00
5062;BME280;2351;50.812;12.872;2023-02-13T11:36:29;99956.50;;;8.29;100.00
5062;BME280;2351;50.812;12.872;2023-02-13T11:39:03;99942.88;;;8.39;100.00
5062;BME280;2351;50.812;12.872;2023-02-13T11:41:39;99947.72;;;8.50;100.00
5062;BME280;2351;50.812;12.872;2023-02-13T11:44:20;99954.03;;;8.66;100.00
5062;BME280;2351;50.812;12.872;2023-02-13T11:46:54;99948.75;;;7.64;100.00
5062;BME280;2351;50.812;12.872;2023-02-13T11:49:28;99949.88;;;7.59;100.00
5062;BME280;2351;50.812;12.872;2023-02-13T11:52:04;99945.25;;;8.26;100.00
5062;BME280;2351;50.812;12.872;2023-02-13T11:54:38;99938.88;;;8.51;100.00
5062;BME280;2351;50.812;12.872;2023-02-13T11:57:19;99932.72;;;8.88;100.00
5062;BME280;2351;50.812;12.872;2023-02-13T11:59:52;99938.94;;;9.07;100.00
5062;BME280;2351;50.812;12.872;2023-02-13T12:02:26;99939.44;;;8.96;100.00
5062;BME280;2351;50.812;12.872;2023-02-13T12:05:16;99941.03;;;8.22;100.00
5062;BME280;2351;50.812;12.872;2023-02-13T12:07:48;99935.47;;;8.28;100.00
5062;BME280;2351;50.812;12.872;2023-02-13T12:10:22;99937.56;;;8.40;100.00
5062;BME280;2351;50.812;12.872;2023-02-13T12:12:57;99935.19;;;8.34;100.00
5062;BME280;2351;50.812;12.872;2023-02-13T12:15:32;99931.75;;;8.32;100.00
5062;BME280;2351;50.812;12.872;2023-02-13T12:18:10;99928.94;;;8.37;100.00
5062;BME280;2351;50.812;12.872;2023-02-13T12:20:52;99920.41;;;8.70;100.00
5062;BME280;2351;50.812;12.872;2023-02-13T12:23:32;99921.31;;;8.88;100.00
5062;BME280;2351;50.812;12.872;2023-02-13T12:26:19;99923.72;;;9.12;100.00
5062;BME280;2351;50.812;12.872;2023-02-13T12:32:03;99923.56;;;9.15;100.00
5062;BME280;2351;50.812;12.872;2023-02-13T12:35:00;99922.03;;;9.28;100.00
5062;BME280;2351;50.812;12.872;2023-02-13T12:37:52;99914.63;;;8.81;100.00
5062;BME280;2351;50.812;12.872;2023-02-13T12:40:38;99915.53;;;8.41;100.00
5062;BME280;2351;50.812;12.872;2023-02-13T12:43:34;99907.06;;;8.54;100.00
5062;BME280;2351;50.812;12.872;2023-02-13T12:46:15;99908.34;;;8.64;100.00
5062;BME280;2351;50.812;12.872;2023-02-13T12:48:59;99905.56;;;8.67;100.00
5062;BME280;2351;50.812;12.872;2023-02-13T12:51:45;99905.16;;;8.94;100.00
5062;BME280;2351;50.812;12.872;2023-02-13T12:54:32;99899.31;;;9.24;100.00
5062;BME280;2351;50.812;12.872;2023-02-13T12:57:17;99891.41;;;9.24;100.00
5062;BME280;2351;50.812;12.872;2023-02-13T13:00:07;99896.63;;;8.89;97.63
5062;BME280;2351;50.812;12.872;2023-02-13T13:02:50;99896.72;;;8.09;88.89
5062;BME280;2351;50.812;12.872;2023-02-13T13:05:36;99906.38;;;7.48;90.08
5062;BME280;2351;50.812;12.872;2023-02-13T13:08:28;99907.34;;;7.25;93.73
5062;BME280;2351;50.812;12.872;2023-02-13T13:11:15;99905.22;;;6.90;91.02
5062;BME280;2351;50.812;12.872;2023-02-13T13:13:59;99905.63;;;6.33;93.24
5062;BME280;2351;50.812;12.872;2023-02-13T13:16:44;99908.13;;;6.13;95.63
5062;BME280;2351;50.812;12.872;2023-02-13T13:19:28;99902.66;;;6.19;96.41
5062;BME280;2351;50.812;12.872;2023-02-13T13:22:09;99914.31;;;5.86;95.85
5062;BME280;2351;50.812;12.872;2023-02-13T13:24:55;99914.69;;;5.76;97.66
5062;BME280;2351;50.812;12.872;2023-02-13T13:27:32;99912.25;;;5.69;97.93
5062;BME280;2351;50.812;12.872;2023-02-13T13:30:15;99913.06;;;5.71;99.42
5062;BME280;2351;50.812;12.872;2023-02-13T13:32:53;99909.84;;;5.63;99.33
5062;BME280;2351;50.812;12.872;2023-02-13T13:35:27;99914.94;;;5.68;100.00
5062;BME280;2351;50.812;12.872;2023-02-13T13:38:05;99913.69;;;5.53;99.84
5062;BME280;2351;50.812;12.872;2023-02-13T13:40:49;99907.91;;;5.43;99.02
5062;BME280;2351;50.812;12.872;2023-02-13T13:43:28;99914.16;;;5.12;100.00
5062;BME280;2351;50.812;12.872;2023-02-13T13:46:07;99918.97;;;5.26;100.00
5062;BME280;2351;50.812;12.872;2023-02-13T13:48:54;99912.97;;;5.49;100.00
5062;BME280;2351;50.812;12.872;2023-02-13T13:51:31;99911.78;;;5.31;100.00
5062;BME280;2351;50.812;12.872;2023-02-13T13:54:34;99915.84;;;4.86;99.17
5062;BME280;2351;50.812;12.872;2023-02-13T13:57:10;99918.44;;;4.58;100.00
5062;BME280;2351;50.812;12.872;2023-02-13T14:02:45;99909.84;;;4.52;100.00
5062;BME280;2351;50.812;12.872;2023-02-13T14:05:24;99911.56;;;4.53;100.00
5062;BME280;2351;50.812;12.872;2023-02-13T14:08:00;99909.09;;;4.49;100.00
5062;BME280;2351;50.812;12.872;2023-02-13T14:11:00;99905.38;;;4.56;100.00
5062;BME280;2351;50.812;12.872;2023-02-13T14:13:35;99914.41;;;4.47;100.00